sensor_id;sensor_type;location;lat;lon;timestamp;P1;durP1;ratioP1;P2;durP2;ratioP2
23432;SDS011;41331;45.412;10.992;2024-02-28T00:01:31;355.20;;;330.50;;
23432;SDS011;41331;45.412;10.992;2024-02-28T00:03:59;359.70;;;334.85;;
23432;SDS011;41331;45.412;10.992;2024-02-28T00:06:27;343.95;;;320.55;;
23432;SDS011;41331;45.412;10.992;2024-02-28T00:08:55;316.10;;;295.20;;
23432;SDS011;41331;45.412;10.992;2024-02-28T00:11:22;319.73;;;298.67;;
23432;SDS011;41331;45.412;10.992;2024-02-28T00:13:50;318.95;;;298.23;;
23432;SDS011;41331;45.412;10.992;2024-02-28T00:16:18;320.23;;;298.95;;
23432;SDS011;41331;45.412;10.992;2024-02-28T00:18:45;319.92;;;298.75;;
23432;SDS011;41331;45.412;10.992;2024-02-28T00:21:13;317.13;;;297.00;;
23432;SDS011;41331;45.412;10.992;2024-02-28T00:23:41;334.02;;;311.90;;
23432;SDS011;41331;45.412;10.992;2024-02-28T00:26:10;280.23;;;262.27;;
23432;SDS011;41331;45.412;10.992;2024-02-28T00:28:39;291.55;;;273.05;;
23432;SDS011;41331;45.412;10.992;2024-02-28T00:31:07;337.10;;;314.85;;
23432;SDS011;41331;45.412;10.992;2024-02-28T00:33:34;330.77;;;308.42;;
23432;SDS011;41331;45.412;10.992;2024-02-28T00:36:02;358.85;;;334.38;;
23432;SDS011;41331;45.412;10.992;2024-02-28T00:38:30;357.55;;;332.48;;
23432;SDS011;41331;45.412;10.992;2024-02-28T00:40:58;359.77;;;334.98;;
23432;SDS011;41331;45.412;10.992;2024-02-28T00:43:25;324.77;;;303.00;;
23432;SDS011;41331;45.412;10.992;2024-02-28T00:45:53;340.73;;;317.85;;
23432;SDS011;41331;45.412;10.992;2024-02-28T00:48:23;354.65;;;329.98;;
23432;SDS011;41331;45.412;10.992;2024-02-28T00:50:51;370.05;;;344.67;;
23432;SDS011;41331;45.412;10.992;2024-02-28T00:53:19;325.95;;;304.70;;
23432;SDS011;41331;45.412;10.992;2024-02-28T00:55:47;358.58;;;333.98;;
23432;SDS011;41331;45.412;10.992;2024-02-28T00:58:15;344.05;;;320.52;;
23432;SDS011;41331;45.412;10.992;2024-02-28T01:00:43;369.75;;;343.60;;
23432;SDS011;41331;45.412;10.992;2024-02-28T01:03:11;344.30;;;321.05;;
23432;SDS011;41331;45.412;10.992;2024-02-28T01:05:42;351.55;;;327.27;;
23432;SDS011;41331;45.412;10.992;2024-02-28T01:08:11;330.35;;;307.92;;
23432;SDS011;41331;45.412;10.992;2024-02-28T01:10:39;379.92;;;353.63;;
23432;SDS011;41331;45.412;10.992;2024-02-28T01:13:08;378.42;;;352.42;;
23432;SDS011;41331;45.412;10.992;2024-02-28T01:15:35;360.05;;;335.90;;
23432;SDS011;41331;45.412;10.992;2024-02-28T01:18:03;351.05;;;326.83;;
23432;SDS011;41331;45.412;10.992;2024-02-28T01:20:31;384.33;;;357.05;;
23432;SDS011;41331;45.412;10.992;2024-02-28T01:22:59;413.38;;;383.55;;
23432;SDS011;41331;45.412;10.992;2024-02-28T01:25:27;421.35;;;390.88;;
23432;SDS011;41331;45.412;10.992;2024-02-28T01:27:56;344.02;;;321.00;;
23432;SDS011;41331;45.412;10.992;2024-02-28T01:30:25;323.10;;;302.13;;
23432;SDS011;41331;45.412;10.992;2024-02-28T01:32:53;343.25;;;320.45;;
23432;SDS011;41331;45.412;10.992;2024-02-28T01:35:21;305.73;;;286.13;;
23432;SDS011;41331;45.412;10.992;2024-02-28T01:37:49;340.67;;;318.15;;
23432;SDS011;41331;45.412;10.992;2024-02-28T01:40:17;281.42;;;263.35;;
23432;SDS011;41331;45.412;10.992;2024-02-28T01:42:45;318.52;;;297.75;;
23432;SDS011;41331;45.412;10.992;2024-02-28T01:45:13;343.75;;;320.35;;
23432;SDS011;41331;45.412;10.992;2024-02-28T01:47:42;441.65;;;407.23;;
23432;SDS011;41331;45.412;10.992;2024-02-28T01:50:10;415.50;;;384.73;;
23432;SDS011;41331;45.412;10.992;2024-02-28T01:52:39;449.63;;;415.48;;
23432;SDS011;41331;45.412;10.992;2024-02-28T01:55:07;422.80;;;392.30;;
23432;SDS011;41331;45.412;10.992;2024-02-28T01:57:36;439.50;;;406.95;;
23432;SDS011;41331;45.412;10.992;2024-02-28T02:00:06;472.85;;;436.17;;
23432;SDS011;41331;45.412;10.992;2024-02-28T02:02:35;484.10;;;447.60;;
23432;SDS011;41331;45.412;10.992;2024-02-28T02:05:03;389.05;;;362.30;;
23432;SDS011;41331;45.412;10.992;2024-02-28T02:07:31;448.13;;;414.42;;
23432;SDS011;41331;45.412;10.992;2024-02-28T02:09:59;447.88;;;414.88;;
23432;SDS011;41331;45.412;10.992;2024-02-28T02:12:27;425.52;;;394.80;;
23432;SDS011;41331;45.412;10.992;2024-02-28T02:14:55;423.55;;;392.23;;
23432;SDS011;41331;45.412;10.992;2024-02-28T02:17:22;425.77;;;394.05;;
23432;SDS011;41331;45.412;10.992;2024-02-28T02:19:50;370.50;;;345.23;;
23432;SDS011;41331;45.412;10.992;2024-02-28T02:22:18;303.63;;;284.40;;
23432;SDS011;41331;45.412;10.992;2024-02-28T02:24:47;327.83;;;306.25;;
23432;SDS011;41331;45.412;10.992;2024-02-28T02:27:15;394.10;;;366.35;;
23432;SDS011;41331;45.412;10.992;2024-02-28T02:29:43;349.50;;;326.02;;
23432;SDS011;41331;45.412;10.992;2024-02-28T02:32:11;356.27;;;332.40;;
23432;SDS011;41331;45.412;10.992;2024-02-28T02:34:38;354.70;;;331.27;;
23432;SDS011;41331;45.412;10.992;2024-02-28T02:37:06;348.05;;;324.77;;
23432;SDS011;41331;45.412;10.992;2024-02-28T02:39:36;402.35;;;373.35;;
23432;SDS011;41331;45.412;10.992;2024-02-28T02:42:04;427.98;;;396.83;;
23432;SDS011;41331;45.412;10.992;2024-02-28T02:44:32;438.95;;;407.08;;
23432;SDS011;41331;45.412;10.992;2024-02-28T02:47:00;456.25;;;422.52;;
23432;SDS011;41331;45.412;10.992;2024-02-28T02:49:28;471.13;;;435.05;;
23432;SDS011;41331;45.412;10.992;2024-02-28T02:51:56;516.42;;;476.88;;
23432;SDS011;41331;45.412;10.992;2024-02-28T02:54:23;458.02;;;423.88;;
23432;SDS011;41331;45.412;10.992;2024-02-28T02:56:51;503.45;;;464.08;;
23432;SDS011;41331;45.412;10.992;2024-02-28T02:59:19;482.63;;;446.33;;
23432;SDS011;41331;45.412;10.992;2024-02-28T03:01:49;507.33;;;467.92;;
23432;SDS011;41331;45.412;10.992;2024-02-28T03:04:17;506.25;;;466.00;;
23432;SDS011;41331;45.412;10.992;2024-02-28T03:06:45;518.42;;;477.27;;
23432;SDS011;41331;45.412;10.992;2024-02-28T03:09:13;551.25;;;488.77;;
23432;SDS011;41331;45.412;10.992;2024-02-28T03:11:40;539.92;;;470.60;;
23432;SDS011;41331;45.412;10.992;2024-02-28T03:14:08;506.88;;;464.23;;
23432;SDS011;41331;45.412;10.992;2024-02-28T03:16:40;482.10;;;444.70;;
23432;SDS011;41331;45.412;10.992;2024-02-28T03:19:09;520.47;;;478.05;;
23432;SDS011;41331;45.412;10.992;2024-02-28T03:21:38;476.88;;;439.80;;
23432;SDS011;41331;45.412;10.992;2024-02-28T03:24:05;520.28;;;478.52;;
23432;SDS011;41331;45.412;10.992;2024-02-28T03:26:33;507.40;;;466.30;;
23432;SDS011;41331;45.412;10.992;2024-02-28T03:29:01;463.73;;;428.02;;
23432;SDS011;41331;45.412;10.992;2024-02-28T03:31:29;486.90;;;449.88;;
23432;SDS011;41331;45.412;10.992;2024-02-28T03:33:56;424.15;;;394.00;;
23432;SDS011;41331;45.412;10.992;2024-02-28T03:36:24;352.42;;;329.08;;
23432;SDS011;41331;45.412;10.992;2024-02-28T03:38:52;413.15;;;384.50;;
23432;SDS011;41331;45.412;10.992;2024-02-28T03:41:20;410.08;;;381.38;;
23432;SDS011;41331;45.412;10.992;2024-02-28T03:43:47;376.15;;;350.58;;
23432;SDS011;41331;45.412;10.992;2024-02-28T03:46:15;435.52;;;405.20;;
23432;SDS011;41331;45.412;10.992;2024-02-28T03:48:43;435.35;;;404.42;;
23432;SDS011;41331;45.412;10.992;2024-02-28T03:51:10;436.58;;;405.10;;
23432;SDS011;41331;45.412;10.992;2024-02-28T03:53:40;471.30;;;435.90;;
23432;SDS011;41331;45.412;10.992;2024-02-28T03:56:11;381.40;;;354.85;;
23432;SDS011;41331;45.412;10.992;2024-02-28T03:58:56;438.83;;;407.42;;
23432;SDS011;41331;45.412;10.992;2024-02-28T04:01:24;457.50;;;425.02;;
23432;SDS011;41331;45.412;10.992;2024-02-28T04:03:52;455.63;;;422.67;;
23432;SDS011;41331;45.412;10.992;2024-02-28T04:06:19;551.58;;;504.52;;
23432;SDS011;41331;45.412;10.992;2024-02-28T04:08:47;556.90;;;506.08;;
23432;SDS011;41331;45.412;10.992;2024-02-28T04:11:15;501.38;;;462.63;;
23432;SDS011;41331;45.412;10.992;2024-02-28T04:13:43;522.35;;;480.27;;
23432;SDS011;41331;45.412;10.992;2024-02-28T04:16:11;472.52;;;437.00;;
23432;SDS011;41331;45.412;10.992;2024-02-28T04:18:39;526.15;;;482.17;;
23432;SDS011;41331;45.412;10.992;2024-02-28T04:21:07;536.50;;;492.35;;
23432;SDS011;41331;45.412;10.992;2024-02-28T04:23:40;519.65;;;479.13;;
23432;SDS011;41331;45.412;10.992;2024-02-28T04:26:09;512.55;;;472.38;;
23432;SDS011;41331;45.412;10.992;2024-02-28T04:28:37;496.83;;;458.38;;
23432;SDS011;41331;45.412;10.992;2024-02-28T04:31:05;523.22;;;481.80;;
23432;SDS011;41331;45.412;10.992;2024-02-28T04:33:34;527.30;;;483.77;;
23432;SDS011;41331;45.412;10.992;2024-02-28T04:36:03;542.33;;;498.15;;
23432;SDS011;41331;45.412;10.992;2024-02-28T04:38:31;523.78;;;480.65;;
23432;SDS011;41331;45.412;10.992;2024-02-28T04:40:59;515.50;;;475.65;;
23432;SDS011;41331;45.412;10.992;2024-02-28T04:43:26;509.48;;;469.05;;
23432;SDS011;41331;45.412;10.992;2024-02-28T04:45:55;471.92;;;437.13;;
23432;SDS011;41331;45.412;10.992;2024-02-28T04:48:23;440.38;;;408.08;;
23432;SDS011;41331;45.412;10.992;2024-02-28T04:50:51;472.23;;;437.08;;
23432;SDS011;41331;45.412;10.992;2024-02-28T04:53:19;497.33;;;459.77;;
23432;SDS011;41331;45.412;10.992;2024-02-28T04:55:49;489.38;;;452.80;;
23432;SDS011;41331;45.412;10.992;2024-02-28T04:58:18;484.52;;;447.05;;
23432;SDS011;41331;45.412;10.992;2024-02-28T05:00:45;512.38;;;472.77;;
23432;SDS011;41331;45.412;10.992;2024-02-28T05:03:14;510.90;;;472.25;;
23432;SDS011;41331;45.412;10.992;2024-02-28T05:05:42;511.55;;;471.55;;
23432;SDS011;41331;45.412;10.992;2024-02-28T05:08:10;515.03;;;475.13;;
23432;SDS011;41331;45.412;10.992;2024-02-28T05:10:38;544.85;;;501.33;;
23432;SDS011;41331;45.412;10.992;2024-02-28T05:13:07;524.70;;;478.25;;
23432;SDS011;41331;45.412;10.992;2024-02-28T05:15:35;542.28;;;493.38;;
23432;SDS011;41331;45.412;10.992;2024-02-28T05:18:03;536.65;;;488.48;;
23432;SDS011;41331;45.412;10.992;2024-02-28T05:20:31;559.88;;;503.70;;
23432;SDS011;41331;45.412;10.992;2024-02-28T05:22:59;531.20;;;483.15;;
23432;SDS011;41331;45.412;10.992;2024-02-28T05:25:27;505.23;;;467.33;;
23432;SDS011;41331;45.412;10.992;2024-02-28T05:27:55;520.90;;;480.05;;
23432;SDS011;41331;45.412;10.992;2024-02-28T05:30:22;513.50;;;473.33;;
23432;SDS011;41331;45.412;10.992;2024-02-28T05:32:50;489.98;;;452.85;;
23432;SDS011;41331;45.412;10.992;2024-02-28T05:35:18;533.63;;;489.15;;
23432;SDS011;41331;45.412;10.992;2024-02-28T05:37:46;535.95;;;492.25;;
23432;SDS011;41331;45.412;10.992;2024-02-28T05:40:14;532.28;;;483.70;;
23432;SDS011;41331;45.412;10.992;2024-02-28T05:42:42;537.35;;;493.80;;
23432;SDS011;41331;45.412;10.992;2024-02-28T05:45:10;530.75;;;488.25;;
23432;SDS011;41331;45.412;10.992;2024-02-28T05:47:39;559.90;;;506.27;;
23432;SDS011;41331;45.412;10.992;2024-02-28T05:50:10;574.80;;;520.75;;
23432;SDS011;41331;45.412;10.992;2024-02-28T05:52:43;576.17;;;519.95;;
23432;SDS011;41331;45.412;10.992;2024-02-28T05:55:11;560.00;;;509.73;;
23432;SDS011;41331;45.412;10.992;2024-02-28T05:57:39;575.42;;;525.63;;
23432;SDS011;41331;45.412;10.992;2024-02-28T06:00:07;578.45;;;520.35;;
23432;SDS011;41331;45.412;10.992;2024-02-28T06:02:37;570.92;;;515.90;;
23432;SDS011;41331;45.412;10.992;2024-02-28T06:05:05;585.72;;;528.15;;
23432;SDS011;41331;45.412;10.992;2024-02-28T06:07:33;600.50;;;534.75;;
23432;SDS011;41331;45.412;10.992;2024-02-28T06:10:01;577.58;;;525.58;;
23432;SDS011;41331;45.412;10.992;2024-02-28T06:12:29;562.92;;;513.42;;
23432;SDS011;41331;45.412;10.992;2024-02-28T06:14:57;571.45;;;522.50;;
23432;SDS011;41331;45.412;10.992;2024-02-28T06:17:25;550.58;;;507.65;;
23432;SDS011;41331;45.412;10.992;2024-02-28T06:19:53;544.60;;;505.13;;
23432;SDS011;41331;45.412;10.992;2024-02-28T06:22:21;532.95;;;492.45;;
23432;SDS011;41331;45.412;10.992;2024-02-28T06:24:49;549.20;;;505.02;;
23432;SDS011;41331;45.412;10.992;2024-02-28T06:27:17;549.75;;;507.17;;
23432;SDS011;41331;45.412;10.992;2024-02-28T06:29:45;534.80;;;491.35;;
23432;SDS011;41331;45.412;10.992;2024-02-28T06:32:15;519.17;;;480.02;;
23432;SDS011;41331;45.412;10.992;2024-02-28T06:34:43;522.28;;;482.02;;
23432;SDS011;41331;45.412;10.992;2024-02-28T06:37:11;497.90;;;461.45;;
23432;SDS011;41331;45.412;10.992;2024-02-28T06:39:39;465.77;;;432.25;;
23432;SDS011;41331;45.412;10.992;2024-02-28T06:42:07;445.23;;;414.00;;
23432;SDS011;41331;45.412;10.992;2024-02-28T06:44:35;464.40;;;431.52;;
23432;SDS011;41331;45.412;10.992;2024-02-28T06:47:03;483.63;;;449.42;;
23432;SDS011;41331;45.412;10.992;2024-02-28T06:49:31;525.47;;;485.33;;
23432;SDS011;41331;45.412;10.992;2024-02-28T06:51:59;569.30;;;521.88;;
23432;SDS011;41331;45.412;10.992;2024-02-28T06:54:28;523.90;;;483.05;;
23432;SDS011;41331;45.412;10.992;2024-02-28T06:56:56;542.88;;;502.40;;
23432;SDS011;41331;45.412;10.992;2024-02-28T06:59:25;538.47;;;496.02;;
23432;SDS011;41331;45.412;10.992;2024-02-28T07:01:52;557.13;;;510.45;;
23432;SDS011;41331;45.412;10.992;2024-02-28T07:04:20;581.33;;;530.72;;
23432;SDS011;41331;45.412;10.992;2024-02-28T07:06:48;563.20;;;509.70;;
23432;SDS011;41331;45.412;10.992;2024-02-28T07:09:16;579.97;;;534.53;;
23432;SDS011;41331;45.412;10.992;2024-02-28T07:11:44;608.42;;;531.00;;
23432;SDS011;41331;45.412;10.992;2024-02-28T07:14:12;655.58;;;511.50;;
23432;SDS011;41331;45.412;10.992;2024-02-28T07:16:43;687.55;;;484.50;;
23432;SDS011;41331;45.412;10.992;2024-02-28T07:19:11;584.55;;;536.03;;
23432;SDS011;41331;45.412;10.992;2024-02-28T07:21:38;530.45;;;491.92;;
23432;SDS011;41331;45.412;10.992;2024-02-28T07:24:06;496.92;;;461.20;;
23432;SDS011;41331;45.412;10.992;2024-02-28T07:26:34;463.23;;;431.65;;
23432;SDS011;41331;45.412;10.992;2024-02-28T07:29:02;433.33;;;403.45;;
23432;SDS011;41331;45.412;10.992;2024-02-28T07:31:30;453.95;;;422.75;;
23432;SDS011;41331;45.412;10.992;2024-02-28T07:33:58;474.48;;;441.58;;
23432;SDS011;41331;45.412;10.992;2024-02-28T07:36:29;365.17;;;341.63;;
23432;SDS011;41331;45.412;10.992;2024-02-28T07:38:57;403.88;;;377.02;;
23432;SDS011;41331;45.412;10.992;2024-02-28T07:41:25;373.83;;;349.52;;
23432;SDS011;41331;45.412;10.992;2024-02-28T07:43:53;379.95;;;355.52;;
23432;SDS011;41331;45.412;10.992;2024-02-28T07:46:21;390.45;;;365.35;;
23432;SDS011;41331;45.412;10.992;2024-02-28T07:48:49;375.63;;;351.83;;
23432;SDS011;41331;45.412;10.992;2024-02-28T07:51:16;372.25;;;349.00;;
23432;SDS011;41331;45.412;10.992;2024-02-28T07:53:45;635.20;;;583.33;;
23432;SDS011;41331;45.412;10.992;2024-02-28T07:56:17;663.78;;;603.30;;
23432;SDS011;41331;45.412;10.992;2024-02-28T07:58:46;658.20;;;550.15;;
23432;SDS011;41331;45.412;10.992;2024-02-28T08:01:14;687.33;;;615.35;;
23432;SDS011;41331;45.412;10.992;2024-02-28T08:03:44;554.05;;;514.45;;
23432;SDS011;41331;45.412;10.992;2024-02-28T08:06:11;547.88;;;511.10;;
23432;SDS011;41331;45.412;10.992;2024-02-28T08:08:39;510.38;;;476.50;;
23432;SDS011;41331;45.412;10.992;2024-02-28T08:11:07;558.40;;;521.33;;
23432;SDS011;41331;45.412;10.992;2024-02-28T08:13:35;566.80;;;528.28;;
23432;SDS011;41331;45.412;10.992;2024-02-28T08:16:03;615.22;;;570.55;;
23432;SDS011;41331;45.412;10.992;2024-02-28T08:18:31;617.97;;;574.05;;
23432;SDS011;41331;45.412;10.992;2024-02-28T08:21:01;557.17;;;518.83;;
23432;SDS011;41331;45.412;10.992;2024-02-28T08:23:30;495.25;;;463.13;;
23432;SDS011;41331;45.412;10.992;2024-02-28T08:25:58;568.85;;;529.97;;
23432;SDS011;41331;45.412;10.992;2024-02-28T08:28:27;585.25;;;545.15;;
23432;SDS011;41331;45.412;10.992;2024-02-28T08:30:54;618.38;;;576.05;;
23432;SDS011;41331;45.412;10.992;2024-02-28T08:33:23;637.38;;;591.38;;
23432;SDS011;41331;45.412;10.992;2024-02-28T08:35:51;643.38;;;597.15;;
23432;SDS011;41331;45.412;10.992;2024-02-28T08:38:20;570.78;;;532.65;;
23432;SDS011;41331;45.412;10.992;2024-02-28T08:40:48;534.45;;;498.85;;
23432;SDS011;41331;45.412;10.992;2024-02-28T08:43:16;528.13;;;493.13;;
23432;SDS011;41331;45.412;10.992;2024-02-28T08:45:43;517.72;;;483.77;;
23432;SDS011;41331;45.412;10.992;2024-02-28T08:48:12;520.10;;;485.75;;
23432;SDS011;41331;45.412;10.992;2024-02-28T08:50:40;538.58;;;503.15;;
23432;SDS011;41331;45.412;10.992;2024-02-28T08:53:07;537.83;;;502.70;;
23432;SDS011;41331;45.412;10.992;2024-02-28T08:55:36;663.72;;;617.08;;
23432;SDS011;41331;45.412;10.992;2024-02-28T08:58:04;668.15;;;620.38;;
23432;SDS011;41331;45.412;10.992;2024-02-28T09:00:32;672.90;;;625.55;;
23432;SDS011;41331;45.412;10.992;2024-02-28T09:03:00;719.08;;;662.13;;
23432;SDS011;41331;45.412;10.992;2024-02-28T09:05:29;588.65;;;550.40;;
23432;SDS011;41331;45.412;10.992;2024-02-28T09:08:00;713.53;;;655.90;;
23432;SDS011;41331;45.412;10.992;2024-02-28T09:10:28;719.30;;;660.20;;
23432;SDS011;41331;45.412;10.992;2024-02-28T09:13:01;713.38;;;620.97;;
23432;SDS011;41331;45.412;10.992;2024-02-28T09:15:29;740.60;;;671.45;;
23432;SDS011;41331;45.412;10.992;2024-02-28T09:17:58;732.90;;;667.20;;
23432;SDS011;41331;45.412;10.992;2024-02-28T09:20:26;741.00;;;668.00;;
23432;SDS011;41331;45.412;10.992;2024-02-28T09:22:54;729.53;;;663.97;;
23432;SDS011;41331;45.412;10.992;2024-02-28T09:25:22;519.25;;;486.13;;
23432;SDS011;41331;45.412;10.992;2024-02-28T09:27:55;454.10;;;424.83;;
23432;SDS011;41331;45.412;10.992;2024-02-28T09:30:24;555.67;;;519.97;;
23432;SDS011;41331;45.412;10.992;2024-02-28T09:33:03;746.22;;;693.17;;
23432;SDS011;41331;45.412;10.992;2024-02-28T09:35:31;157.30;;;148.10;;
23432;SDS011;41331;45.412;10.992;2024-02-28T09:37:59;286.13;;;269.00;;
23432;SDS011;41331;45.412;10.992;2024-02-28T09:40:30;515.65;;;482.10;;
23432;SDS011;41331;45.412;10.992;2024-02-28T09:43:02;351.42;;;329.77;;
23432;SDS011;41331;45.412;10.992;2024-02-28T09:45:31;357.10;;;335.10;;
23432;SDS011;41331;45.412;10.992;2024-02-28T09:47:59;361.27;;;338.92;;
23432;SDS011;41331;45.412;10.992;2024-02-28T09:50:28;421.70;;;395.17;;
23432;SDS011;41331;45.412;10.992;2024-02-28T09:53:00;321.23;;;301.58;;
23432;SDS011;41331;45.412;10.992;2024-02-28T09:55:37;602.63;;;563.47;;
23432;SDS011;41331;45.412;10.992;2024-02-28T09:58:05;472.27;;;442.20;;
23432;SDS011;41331;45.412;10.992;2024-02-28T10:00:35;421.92;;;395.35;;
23432;SDS011;41331;45.412;10.992;2024-02-28T10:03:05;409.30;;;383.67;;
23432;SDS011;41331;45.412;10.992;2024-02-28T10:05:35;339.42;;;319.10;;
23432;SDS011;41331;45.412;10.992;2024-02-28T10:08:05;435.02;;;407.40;;
23432;SDS011;41331;45.412;10.992;2024-02-28T10:10:36;377.55;;;354.00;;
23432;SDS011;41331;45.412;10.992;2024-02-28T10:13:05;729.13;;;672.95;;
23432;SDS011;41331;45.412;10.992;2024-02-28T10:15:34;578.75;;;541.08;;
23432;SDS011;41331;45.412;10.992;2024-02-28T10:18:02;722.53;;;669.28;;
23432;SDS011;41331;45.412;10.992;2024-02-28T10:20:31;706.75;;;627.85;;
23432;SDS011;41331;45.412;10.992;2024-02-28T10:22:59;389.42;;;365.27;;
23432;SDS011;41331;45.412;10.992;2024-02-28T10:25:32;233.18;;;219.40;;
23432;SDS011;41331;45.412;10.992;2024-02-28T10:28:11;134.65;;;126.80;;
23432;SDS011;41331;45.412;10.992;2024-02-28T10:30:42;122.40;;;115.22;;
23432;SDS011;41331;45.412;10.992;2024-02-28T10:33:11;144.30;;;135.98;;
23432;SDS011;41331;45.412;10.992;2024-02-28T10:35:42;201.48;;;189.77;;
23432;SDS011;41331;45.412;10.992;2024-02-28T10:38:13;274.45;;;258.45;;
23432;SDS011;41331;45.412;10.992;2024-02-28T10:40:42;403.92;;;379.10;;
23432;SDS011;41331;45.412;10.992;2024-02-28T10:43:11;691.97;;;645.08;;
23432;SDS011;41331;45.412;10.992;2024-02-28T10:45:42;403.83;;;378.70;;
23432;SDS011;41331;45.412;10.992;2024-02-28T10:48:32;339.77;;;319.25;;
23432;SDS011;41331;45.412;10.992;2024-02-28T10:51:01;690.15;;;644.60;;
23432;SDS011;41331;45.412;10.992;2024-02-28T10:53:32;714.97;;;665.60;;
23432;SDS011;41331;45.412;10.992;2024-02-28T10:56:12;735.90;;;681.75;;
23432;SDS011;41331;45.412;10.992;2024-02-28T10:58:54;620.00;;;579.30;;
23432;SDS011;41331;45.412;10.992;2024-02-28T11:03:55;652.40;;;606.20;;
23432;SDS011;41331;45.412;10.992;2024-02-28T11:06:23;726.00;;;656.08;;
23432;SDS011;41331;45.412;10.992;2024-02-28T11:08:51;710.58;;;651.85;;
23432;SDS011;41331;45.412;10.992;2024-02-28T11:11:24;720.15;;;657.67;;
23432;SDS011;41331;45.412;10.992;2024-02-28T11:13:55;721.75;;;644.45;;
23432;SDS011;41331;45.412;10.992;2024-02-28T11:16:25;700.22;;;624.65;;
23432;SDS011;41331;45.412;10.992;2024-02-28T11:18:55;715.97;;;645.28;;
23432;SDS011;41331;45.412;10.992;2024-02-28T11:21:24;719.08;;;649.90;;
23432;SDS011;41331;45.412;10.992;2024-02-28T11:26:26;699.70;;;586.05;;
23432;SDS011;41331;45.412;10.992;2024-02-28T11:28:55;711.58;;;644.55;;
23432;SDS011;41331;45.412;10.992;2024-02-28T11:31:23;717.17;;;641.75;;
23432;SDS011;41331;45.412;10.992;2024-02-28T11:33:51;586.55;;;545.88;;
23432;SDS011;41331;45.412;10.992;2024-02-28T11:36:19;574.38;;;534.65;;
23432;SDS011;41331;45.412;10.992;2024-02-28T11:38:48;639.60;;;593.85;;
23432;SDS011;41331;45.412;10.992;2024-02-28T11:41:24;637.33;;;591.60;;
23432;SDS011;41331;45.412;10.992;2024-02-28T11:43:55;663.25;;;612.30;;
23432;SDS011;41331;45.412;10.992;2024-02-28T11:46:23;451.30;;;422.73;;
23432;SDS011;41331;45.412;10.992;2024-02-28T11:48:51;688.65;;;616.72;;
23432;SDS011;41331;45.412;10.992;2024-02-28T11:51:20;450.67;;;421.15;;
23432;SDS011;41331;45.412;10.992;2024-02-28T11:53:48;674.38;;;613.55;;
23432;SDS011;41331;45.412;10.992;2024-02-28T11:56:15;658.35;;;605.88;;
23432;SDS011;41331;45.412;10.992;2024-02-28T11:58:51;634.20;;;586.50;;
23432;SDS011;41331;45.412;10.992;2024-02-28T12:01:20;570.17;;;531.70;;
23432;SDS011;41331;45.412;10.992;2024-02-28T12:04:05;519.10;;;484.00;;
23432;SDS011;41331;45.412;10.992;2024-02-28T12:06:34;529.83;;;493.55;;
23432;SDS011;41331;45.412;10.992;2024-02-28T12:09:04;710.67;;;587.05;;
23432;SDS011;41331;45.412;10.992;2024-02-28T12:11:37;690.40;;;617.03;;
23432;SDS011;41331;45.412;10.992;2024-02-28T12:14:08;709.35;;;589.30;;
23432;SDS011;41331;45.412;10.992;2024-02-28T12:16:37;667.50;;;604.67;;
23432;SDS011;41331;45.412;10.992;2024-02-28T12:19:09;581.55;;;540.13;;
23432;SDS011;41331;45.412;10.992;2024-02-28T12:21:38;616.10;;;571.55;;
23432;SDS011;41331;45.412;10.992;2024-02-28T12:24:10;609.45;;;565.88;;
23432;SDS011;41331;45.412;10.992;2024-02-28T12:26:38;641.75;;;594.00;;
23432;SDS011;41331;45.412;10.992;2024-02-28T12:29:07;651.70;;;600.35;;
23432;SDS011;41331;45.412;10.992;2024-02-28T12:31:38;651.38;;;595.45;;
23432;SDS011;41331;45.412;10.992;2024-02-28T12:34:06;657.92;;;601.15;;
23432;SDS011;41331;45.412;10.992;2024-02-28T12:36:34;673.45;;;611.70;;
23432;SDS011;41331;45.412;10.992;2024-02-28T12:39:02;685.45;;;627.78;;
23432;SDS011;41331;45.412;10.992;2024-02-28T12:41:30;673.00;;;612.22;;
23432;SDS011;41331;45.412;10.992;2024-02-28T12:43:57;697.22;;;629.55;;
23432;SDS011;41331;45.412;10.992;2024-02-28T12:46:25;701.72;;;636.20;;
23432;SDS011;41331;45.412;10.992;2024-02-28T12:48:53;686.70;;;625.70;;
23432;SDS011;41331;45.412;10.992;2024-02-28T12:51:35;701.50;;;635.08;;
23432;SDS011;41331;45.412;10.992;2024-02-28T12:54:07;694.38;;;628.10;;
23432;SDS011;41331;45.412;10.992;2024-02-28T12:56:36;698.05;;;623.17;;
23432;SDS011;41331;45.412;10.992;2024-02-28T12:59:04;716.67;;;618.85;;
23432;SDS011;41331;45.412;10.992;2024-02-28T13:01:35;714.33;;;626.88;;
23432;SDS011;41331;45.412;10.992;2024-02-28T13:04:03;701.50;;;630.72;;
23432;SDS011;41331;45.412;10.992;2024-02-28T13:06:31;713.97;;;623.45;;
23432;SDS011;41331;45.412;10.992;2024-02-28T13:08:59;668.40;;;618.88;;
23432;SDS011;41331;45.412;10.992;2024-02-28T13:11:27;591.67;;;551.15;;
23432;SDS011;41331;45.412;10.992;2024-02-28T13:13:55;594.85;;;553.58;;
23432;SDS011;41331;45.412;10.992;2024-02-28T13:16:23;672.45;;;621.97;;
23432;SDS011;41331;45.412;10.992;2024-02-28T13:18:51;707.47;;;637.28;;
23432;SDS011;41331;45.412;10.992;2024-02-28T13:21:19;650.40;;;587.83;;
23432;SDS011;41331;45.412;10.992;2024-02-28T13:23:47;631.92;;;588.25;;
23432;SDS011;41331;45.412;10.992;2024-02-28T13:26:15;588.17;;;548.65;;
23432;SDS011;41331;45.412;10.992;2024-02-28T13:28:46;599.13;;;559.13;;
23432;SDS011;41331;45.412;10.992;2024-02-28T13:31:18;630.38;;;587.80;;
23432;SDS011;41331;45.412;10.992;2024-02-28T13:33:46;652.42;;;607.90;;
23432;SDS011;41331;45.412;10.992;2024-02-28T13:36:16;594.40;;;554.25;;
23432;SDS011;41331;45.412;10.992;2024-02-28T13:38:44;681.70;;;634.10;;
23432;SDS011;41331;45.412;10.992;2024-02-28T13:41:12;687.22;;;637.53;;
23432;SDS011;41331;45.412;10.992;2024-02-28T13:43:40;704.75;;;653.20;;
23432;SDS011;41331;45.412;10.992;2024-02-28T13:46:08;725.17;;;666.03;;
23432;SDS011;41331;45.412;10.992;2024-02-28T13:48:38;733.40;;;662.33;;
23432;SDS011;41331;45.412;10.992;2024-02-28T13:51:06;715.63;;;654.42;;
23432;SDS011;41331;45.412;10.992;2024-02-28T13:53:34;722.30;;;655.55;;
23432;SDS011;41331;45.412;10.992;2024-02-28T13:56:02;738.78;;;667.38;;
23432;SDS011;41331;45.412;10.992;2024-02-28T13:58:30;714.42;;;643.55;;